sensor_id;sensor_type;location;lat;lon;timestamp;temperature;humidity
46117;DHT22;32591;48.102;11.772;2023-09-19T00:01:01;16.00;99.90
46117;DHT22;32591;48.102;11.772;2023-09-19T00:03:28;16.00;99.90
46117;DHT22;32591;48.102;11.772;2023-09-19T00:05:59;16.00;99.90
46117;DHT22;32591;48.102;11.772;2023-09-19T00:08:26;16.00;99.90
46117;DHT22;32591;48.102;11.772;2023-09-19T00:10:54;16.00;99.90
46117;DHT22;32591;48.102;11.772;2023-09-19T00:13:22;16.00;99.90
46117;DHT22;32591;48.102;11.772;2023-09-19T00:15:50;16.00;99.90
46117;DHT22;32591;48.102;11.772;2023-09-19T00:18:19;16.10;99.90
46117;DHT22;32591;48.102;11.772;2023-09-19T00:20:47;16.10;99.90
46117;DHT22;32591;48.102;11.772;2023-09-19T00:23:18;16.00;99.90
46117;DHT22;32591;48.102;11.772;2023-09-19T00:25:45;16.00;99.90
46117;DHT22;32591;48.102;11.772;2023-09-19T00:28:12;16.10;99.90
46117;DHT22;32591;48.102;11.772;2023-09-19T00:30:42;16.00;99.90
46117;DHT22;32591;48.102;11.772;2023-09-19T00:33:09;15.90;99.90
46117;DHT22;32591;48.102;11.772;2023-09-19T00:35:37;15.80;99.90
46117;DHT22;32591;48.102;11.772;2023-09-19T00:38:04;15.80;99.90
46117;DHT22;32591;48.102;11.772;2023-09-19T00:40:33;15.90;99.90
46117;DHT22;32591;48.102;11.772;2023-09-19T00:43:00;16.00;99.90
46117;DHT22;32591;48.102;11.772;2023-09-19T00:45:28;16.10;99.90
46117;DHT22;32591;48.102;11.772;2023-09-19T00:47:55;16.10;99.90
46117;DHT22;32591;48.102;11.772;2023-09-19T00:50:25;16.10;99.90
46117;DHT22;32591;48.102;11.772;2023-09-19T00:52:55;16.20;99.90
46117;DHT22;32591;48.102;11.772;2023-09-19T00:55:24;16.20;99.90
46117;DHT22;32591;48.102;11.772;2023-09-19T00:57:55;16.20;99.90
46117;DHT22;32591;48.102;11.772;2023-09-19T01:00:22;16.20;99.90
46117;DHT22;32591;48.102;11.772;2023-09-19T01:02:50;16.10;99.90
46117;DHT22;32591;48.102;11.772;2023-09-19T01:05:17;16.20;99.90
46117;DHT22;32591;48.102;11.772;2023-09-19T01:07:45;16.20;99.90
46117;DHT22;32591;48.102;11.772;2023-09-19T01:10:15;16.20;99.90
46117;DHT22;32591;48.102;11.772;2023-09-19T01:12:54;16.20;99.90
46117;DHT22;32591;48.102;11.772;2023-09-19T01:15:31;16.10;99.90
46117;DHT22;32591;48.102;11.772;2023-09-19T01:18:15;16.10;99.90
46117;DHT22;32591;48.102;11.772;2023-09-19T01:20:53;16.10;99.90
46117;DHT22;32591;48.102;11.772;2023-09-19T01:23:29;16.20;99.90
46117;DHT22;32591;48.102;11.772;2023-09-19T01:26:18;16.20;99.90
46117;DHT22;32591;48.102;11.772;2023-09-19T01:29:13;16.10;99.90
46117;DHT22;32591;48.102;11.772;2023-09-19T01:31:49;16.20;99.90
46117;DHT22;32591;48.102;11.772;2023-09-19T01:34:19;16.20;99.90
46117;DHT22;32591;48.102;11.772;2023-09-19T01:36:46;16.20;99.90
46117;DHT22;32591;48.102;11.772;2023-09-19T01:39:14;16.20;99.90
46117;DHT22;32591;48.102;11.772;2023-09-19T01:41:51;16.20;99.90
46117;DHT22;32591;48.102;11.772;2023-09-19T01:44:25;16.20;99.90
46117;DHT22;32591;48.102;11.772;2023-09-19T01:47:03;16.10;99.90
46117;DHT22;32591;48.102;11.772;2023-09-19T01:49:37;16.10;99.90
46117;DHT22;32591;48.102;11.772;2023-09-19T01:52:12;16.10;99.90
46117;DHT22;32591;48.102;11.772;2023-09-19T01:54:46;16.10;99.90
46117;DHT22;32591;48.102;11.772;2023-09-19T01:57:22;16.10;99.90
46117;DHT22;32591;48.102;11.772;2023-09-19T02:00:00;16.10;99.90
46117;DHT22;32591;48.102;11.772;2023-09-19T02:02:34;16.10;99.90
46117;DHT22;32591;48.102;11.772;2023-09-19T02:05:03;16.10;99.90
46117;DHT22;32591;48.102;11.772;2023-09-19T02:07:31;16.10;99.90
46117;DHT22;32591;48.102;11.772;2023-09-19T02:09:59;16.20;99.90
46117;DHT22;32591;48.102;11.772;2023-09-19T02:12:26;16.20;99.90
46117;DHT22;32591;48.102;11.772;2023-09-19T02:14:53;16.20;99.90
46117;DHT22;32591;48.102;11.772;2023-09-19T02:17:22;16.20;99.90
46117;DHT22;32591;48.102;11.772;2023-09-19T02:19:53;16.20;99.90
46117;DHT22;32591;48.102;11.772;2023-09-19T02:22:20;16.10;99.90
46117;DHT22;32591;48.102;11.772;2023-09-19T02:24:48;16.10;99.90
46117;DHT22;32591;48.102;11.772;2023-09-19T02:27:16;16.00;99.90
46117;DHT22;32591;48.102;11.772;2023-09-19T02:29:43;16.00;99.90
46117;DHT22;32591;48.102;11.772;2023-09-19T02:32:10;15.90;99.90
46117;DHT22;32591;48.102;11.772;2023-09-19T02:34:37;16.00;99.90
46117;DHT22;32591;48.102;11.772;2023-09-19T02:37:07;16.00;99.90
46117;DHT22;32591;48.102;11.772;2023-09-19T02:39:35;16.00;99.90
46117;DHT22;32591;48.102;11.772;2023-09-19T02:42:02;16.00;99.90
46117;DHT22;32591;48.102;11.772;2023-09-19T02:44:30;15.90;99.90
46117;DHT22;32591;48.102;11.772;2023-09-19T02:46:58;16.00;99.90
46117;DHT22;32591;48.102;11.772;2023-09-19T02:49:25;16.00;99.90
46117;DHT22;32591;48.102;11.772;2023-09-19T02:51:52;16.00;99.90
46117;DHT22;32591;48.102;11.772;2023-09-19T02:54:20;16.00;99.90
46117;DHT22;32591;48.102;11.772;2023-09-19T02:56:49;16.00;99.90
46117;DHT22;32591;48.102;11.772;2023-09-19T02:59:16;16.00;99.90
46117;DHT22;32591;48.102;11.772;2023-09-19T03:01:45;16.00;99.90
46117;DHT22;32591;48.102;11.772;2023-09-19T03:04:13;16.00;99.90
46117;DHT22;32591;48.102;11.772;2023-09-19T03:06:45;16.00;99.90
46117;DHT22;32591;48.102;11.772;2023-09-19T03:09:16;16.00;99.90
46117;DHT22;32591;48.102;11.772;2023-09-19T03:11:46;16.00;99.90
46117;DHT22;32591;48.102;11.772;2023-09-19T03:14:13;16.00;99.90
46117;DHT22;32591;48.102;11.772;2023-09-19T03:16:41;16.10;99.90
46117;DHT22;32591;48.102;11.772;2023-09-19T03:19:10;16.10;99.90
46117;DHT22;32591;48.102;11.772;2023-09-19T03:21:37;16.20;99.90
46117;DHT22;32591;48.102;11.772;2023-09-19T03:24:05;16.10;99.90
46117;DHT22;32591;48.102;11.772;2023-09-19T03:26:33;16.10;99.90
46117;DHT22;32591;48.102;11.772;2023-09-19T03:29:03;16.10;99.90
46117;DHT22;32591;48.102;11.772;2023-09-19T03:31:33;16.10;99.90
46117;DHT22;32591;48.102;11.772;2023-09-19T03:34:03;16.10;99.90
46117;DHT22;32591;48.102;11.772;2023-09-19T03:36:30;16.10;99.90
46117;DHT22;32591;48.102;11.772;2023-09-19T03:38:59;16.00;99.90
46117;DHT22;32591;48.102;11.772;2023-09-19T03:41:26;16.10;99.90
46117;DHT22;32591;48.102;11.772;2023-09-19T03:43:53;16.10;99.90
46117;DHT22;32591;48.102;11.772;2023-09-19T03:46:22;16.10;99.90
46117;DHT22;32591;48.102;11.772;2023-09-19T03:48:48;16.10;99.90
46117;DHT22;32591;48.102;11.772;2023-09-19T03:51:15;16.10;99.90
46117;DHT22;32591;48.102;11.772;2023-09-19T03:53:43;16.10;99.90
46117;DHT22;32591;48.102;11.772;2023-09-19T03:56:10;16.10;99.90
46117;DHT22;32591;48.102;11.772;2023-09-19T03:58:37;16.20;99.90
46117;DHT22;32591;48.102;11.772;2023-09-19T04:01:05;16.20;99.90
46117;DHT22;32591;48.102;11.772;2023-09-19T04:03:34;16.20;99.90
46117;DHT22;32591;48.102;11.772;2023-09-19T04:06:11;16.20;99.90
46117;DHT22;32591;48.102;11.772;2023-09-19T04:08:38;16.20;99.90
46117;DHT22;32591;48.102;11.772;2023-09-19T04:11:06;16.30;99.90
46117;DHT22;32591;48.102;11.772;2023-09-19T04:13:33;16.30;99.90
46117;DHT22;32591;48.102;11.772;2023-09-19T04:16:00;16.30;99.90
46117;DHT22;32591;48.102;11.772;2023-09-19T04:18:27;16.30;99.90
46117;DHT22;32591;48.102;11.772;2023-09-19T04:20:58;16.30;99.90
46117;DHT22;32591;48.102;11.772;2023-09-19T04:23:25;16.30;99.90
46117;DHT22;32591;48.102;11.772;2023-09-19T04:25:53;16.30;99.90
46117;DHT22;32591;48.102;11.772;2023-09-19T04:28:20;16.30;99.90
46117;DHT22;32591;48.102;11.772;2023-09-19T04:30:47;16.40;99.90
46117;DHT22;32591;48.102;11.772;2023-09-19T04:33:14;16.40;99.90
46117;DHT22;32591;48.102;11.772;2023-09-19T04:35:41;16.30;99.90
46117;DHT22;32591;48.102;11.772;2023-09-19T04:38:10;16.20;99.90
46117;DHT22;32591;48.102;11.772;2023-09-19T04:40:38;16.20;99.90
46117;DHT22;32591;48.102;11.772;2023-09-19T04:43:06;16.00;99.90
46117;DHT22;32591;48.102;11.772;2023-09-19T04:45:33;16.00;99.90
46117;DHT22;32591;48.102;11.772;2023-09-19T04:48:00;15.90;99.90
46117;DHT22;32591;48.102;11.772;2023-09-19T04:50:28;15.90;99.90
46117;DHT22;32591;48.102;11.772;2023-09-19T04:52:55;15.80;99.90
46117;DHT22;32591;48.102;11.772;2023-09-19T04:55:23;15.90;99.90
46117;DHT22;32591;48.102;11.772;2023-09-19T04:57:51;15.90;99.90
46117;DHT22;32591;48.102;11.772;2023-09-19T05:00:20;15.90;99.90
46117;DHT22;32591;48.102;11.772;2023-09-19T05:02:49;15.90;99.90
46117;DHT22;32591;48.102;11.772;2023-09-19T05:05:17;15.90;99.90
46117;DHT22;32591;48.102;11.772;2023-09-19T05:07:45;15.90;99.90
46117;DHT22;32591;48.102;11.772;2023-09-19T05:10:13;15.90;99.90
46117;DHT22;32591;48.102;11.772;2023-09-19T05:12:41;15.90;99.90
46117;DHT22;32591;48.102;11.772;2023-09-19T05:15:10;15.80;99.90
46117;DHT22;32591;48.102;11.772;2023-09-19T05:17:38;15.80;99.90
46117;DHT22;32591;48.102;11.772;2023-09-19T05:20:06;15.90;99.90
46117;DHT22;32591;48.102;11.772;2023-09-19T05:22:38;15.90;99.90
46117;DHT22;32591;48.102;11.772;2023-09-19T05:25:07;15.90;99.90
46117;DHT22;32591;48.102;11.772;2023-09-19T05:27:34;16.00;99.90
46117;DHT22;32591;48.102;11.772;2023-09-19T05:30:03;16.00;99.90
46117;DHT22;32591;48.102;11.772;2023-09-19T05:32:33;16.00;99.90
46117;DHT22;32591;48.102;11.772;2023-09-19T05:34:59;16.10;99.90
46117;DHT22;32591;48.102;11.772;2023-09-19T05:37:26;16.10;99.90
46117;DHT22;32591;48.102;11.772;2023-09-19T05:39:55;16.10;99.90
46117;DHT22;32591;48.102;11.772;2023-09-19T05:42:23;16.10;99.90
46117;DHT22;32591;48.102;11.772;2023-09-19T05:44:55;16.10;99.90
46117;DHT22;32591;48.102;11.772;2023-09-19T05:47:23;16.20;99.90
46117;DHT22;32591;48.102;11.772;2023-09-19T05:49:50;16.20;99.90
46117;DHT22;32591;48.102;11.772;2023-09-19T05:52:18;16.20;99.90
46117;DHT22;32591;48.102;11.772;2023-09-19T05:54:45;16.20;99.90
46117;DHT22;32591;48.102;11.772;2023-09-19T05:57:12;16.20;99.90
46117;DHT22;32591;48.102;11.772;2023-09-19T05:59:39;16.20;99.90
46117;DHT22;32591;48.102;11.772;2023-09-19T06:02:08;16.20;99.90
46117;DHT22;32591;48.102;11.772;2023-09-19T06:04:36;16.20;99.90
46117;DHT22;32591;48.102;11.772;2023-09-19T06:07:06;16.20;99.90
46117;DHT22;32591;48.102;11.772;2023-09-19T06:09:33;16.20;99.90
46117;DHT22;32591;48.102;11.772;2023-09-19T06:12:00;16.20;99.90
46117;DHT22;32591;48.102;11.772;2023-09-19T06:14:28;16.20;99.90
46117;DHT22;32591;48.102;11.772;2023-09-19T06:16:56;16.20;99.90
46117;DHT22;32591;48.102;11.772;2023-09-19T06:19:23;16.30;99.90
46117;DHT22;32591;48.102;11.772;2023-09-19T06:21:53;16.30;99.90
46117;DHT22;32591;48.102;11.772;2023-09-19T06:24:20;16.40;99.90
46117;DHT22;32591;48.102;11.772;2023-09-19T06:26:47;16.40;99.90
46117;DHT22;32591;48.102;11.772;2023-09-19T06:29:14;16.40;99.90
46117;DHT22;32591;48.102;11.772;2023-09-19T06:31:41;16.50;99.90
46117;DHT22;32591;48.102;11.772;2023-09-19T06:34:10;16.50;99.90
46117;DHT22;32591;48.102;11.772;2023-09-19T06:36:37;16.50;99.90
46117;DHT22;32591;48.102;11.772;2023-09-19T06:39:05;16.70;99.90
46117;DHT22;32591;48.102;11.772;2023-09-19T06:41:32;16.90;99.90
46117;DHT22;32591;48.102;11.772;2023-09-19T06:43:59;16.90;99.90
46117;DHT22;32591;48.102;11.772;2023-09-19T06:46:26;17.10;99.90
46117;DHT22;32591;48.102;11.772;2023-09-19T06:48:58;17.20;99.90
46117;DHT22;32591;48.102;11.772;2023-09-19T06:51:25;17.40;99.90
46117;DHT22;32591;48.102;11.772;2023-09-19T06:53:52;17.40;99.90
46117;DHT22;32591;48.102;11.772;2023-09-19T06:56:21;17.50;99.90
46117;DHT22;32591;48.102;11.772;2023-09-19T06:58:50;17.60;99.90
46117;DHT22;32591;48.102;11.772;2023-09-19T07:01:17;17.80;99.90
46117;DHT22;32591;48.102;11.772;2023-09-19T07:03:44;17.80;99.90
46117;DHT22;32591;48.102;11.772;2023-09-19T07:06:12;17.80;99.90
46117;DHT22;32591;48.102;11.772;2023-09-19T07:08:39;17.70;99.90
46117;DHT22;32591;48.102;11.772;2023-09-19T07:11:06;17.60;99.90
46117;DHT22;32591;48.102;11.772;2023-09-19T07:13:34;17.50;99.90
46117;DHT22;32591;48.102;11.772;2023-09-19T07:16:02;17.50;99.90
46117;DHT22;32591;48.102;11.772;2023-09-19T07:18:29;17.60;99.90
46117;DHT22;32591;48.102;11.772;2023-09-19T07:20:57;17.60;99.90
46117;DHT22;32591;48.102;11.772;2023-09-19T07:23:30;17.70;99.90
46117;DHT22;32591;48.102;11.772;2023-09-19T07:26:00;17.80;99.90
46117;DHT22;32591;48.102;11.772;2023-09-19T07:28:30;17.80;99.90
46117;DHT22;32591;48.102;11.772;2023-09-19T07:31:02;17.80;99.90
46117;DHT22;32591;48.102;11.772;2023-09-19T07:33:30;17.80;99.90
46117;DHT22;32591;48.102;11.772;2023-09-19T07:35:57;17.80;99.90
46117;DHT22;32591;48.102;11.772;2023-09-19T07:38:24;17.70;99.90
46117;DHT22;32591;48.102;11.772;2023-09-19T07:40:52;17.70;99.90
46117;DHT22;32591;48.102;11.772;2023-09-19T07:43:20;17.70;99.90
46117;DHT22;32591;48.102;11.772;2023-09-19T07:45:48;17.80;99.90
46117;DHT22;32591;48.102;11.772;2023-09-19T07:48:17;17.80;99.90
46117;DHT22;32591;48.102;11.772;2023-09-19T07:50:44;17.80;99.90
46117;DHT22;32591;48.102;11.772;2023-09-19T07:53:11;17.80;99.90
46117;DHT22;32591;48.102;11.772;2023-09-19T07:55:38;17.90;99.90
46117;DHT22;32591;48.102;11.772;2023-09-19T07:58:06;18.10;99.90
46117;DHT22;32591;48.102;11.772;2023-09-19T08:00:33;18.20;99.90
46117;DHT22;32591;48.102;11.772;2023-09-19T08:03:00;18.20;99.90
46117;DHT22;32591;48.102;11.772;2023-09-19T08:05:30;18.10;99.90
46117;DHT22;32591;48.102;11.772;2023-09-19T08:07:59;18.20;99.90
46117;DHT22;32591;48.102;11.772;2023-09-19T08:10:28;18.30;99.90
46117;DHT22;32591;48.102;11.772;2023-09-19T08:13:00;18.30;99.90
46117;DHT22;32591;48.102;11.772;2023-09-19T08:15:27;18.40;99.90
46117;DHT22;32591;48.102;11.772;2023-09-19T08:17:54;18.30;99.90
46117;DHT22;32591;48.102;11.772;2023-09-19T08:20:21;18.30;99.90
46117;DHT22;32591;48.102;11.772;2023-09-19T08:22:51;18.50;99.90
46117;DHT22;32591;48.102;11.772;2023-09-19T08:25:19;18.60;99.90
46117;DHT22;32591;48.102;11.772;2023-09-19T08:27:47;18.90;99.90
46117;DHT22;32591;48.102;11.772;2023-09-19T08:30:15;19.10;99.90
46117;DHT22;32591;48.102;11.772;2023-09-19T08:32:43;19.10;99.90
46117;DHT22;32591;48.102;11.772;2023-09-19T08:35:11;19.10;99.90
46117;DHT22;32591;48.102;11.772;2023-09-19T08:37:39;19.20;99.90
46117;DHT22;32591;48.102;11.772;2023-09-19T08:40:08;19.20;99.90
46117;DHT22;32591;48.102;11.772;2023-09-19T08:42:48;19.20;99.90
46117;DHT22;32591;48.102;11.772;2023-09-19T08:45:16;19.40;99.90
46117;DHT22;32591;48.102;11.772;2023-09-19T08:47:46;19.60;99.90
46117;DHT22;32591;48.102;11.772;2023-09-19T08:50:29;19.50;99.90
46117;DHT22;32591;48.102;11.772;2023-09-19T08:53:00;19.50;99.90
46117;DHT22;32591;48.102;11.772;2023-09-19T08:55:29;19.40;99.90
46117;DHT22;32591;48.102;11.772;2023-09-19T08:58:01;19.50;99.90
46117;DHT22;32591;48.102;11.772;2023-09-19T09:00:30;19.50;99.90
46117;DHT22;32591;48.102;11.772;2023-09-19T09:02:58;19.60;99.90
46117;DHT22;32591;48.102;11.772;2023-09-19T09:05:28;19.70;99.90
46117;DHT22;32591;48.102;11.772;2023-09-19T09:07:55;19.70;99.90
46117;DHT22;32591;48.102;11.772;2023-09-19T09:10:23;19.80;99.90
46117;DHT22;32591;48.102;11.772;2023-09-19T09:12:53;19.70;99.90
46117;DHT22;32591;48.102;11.772;2023-09-19T09:15:22;19.60;99.90
46117;DHT22;32591;48.102;11.772;2023-09-19T09:17:50;19.60;99.90
46117;DHT22;32591;48.102;11.772;2023-09-19T09:20:18;19.60;99.90
46117;DHT22;32591;48.102;11.772;2023-09-19T09:22:55;19.90;99.90
46117;DHT22;32591;48.102;11.772;2023-09-19T09:25:49;20.00;99.90
46117;DHT22;32591;48.102;11.772;2023-09-19T09:28:22;20.10;99.90
46117;DHT22;32591;48.102;11.772;2023-09-19T09:30:51;20.30;99.90
46117;DHT22;32591;48.102;11.772;2023-09-19T09:33:18;20.30;99.90
46117;DHT22;32591;48.102;11.772;2023-09-19T09:35:49;20.30;99.90
46117;DHT22;32591;48.102;11.772;2023-09-19T09:38:23;20.10;99.90
46117;DHT22;32591;48.102;11.772;2023-09-19T09:40:54;20.00;99.90
46117;DHT22;32591;48.102;11.772;2023-09-19T09:43:29;19.90;99.90
46117;DHT22;32591;48.102;11.772;2023-09-19T09:46:08;19.80;99.90
46117;DHT22;32591;48.102;11.772;2023-09-19T09:48:59;20.00;99.90
46117;DHT22;32591;48.102;11.772;2023-09-19T09:51:51;20.20;99.90
46117;DHT22;32591;48.102;11.772;2023-09-19T09:54:27;20.50;99.90
46117;DHT22;32591;48.102;11.772;2023-09-19T09:57:02;20.70;99.90
46117;DHT22;32591;48.102;11.772;2023-09-19T09:59:50;20.90;99.90
46117;DHT22;32591;48.102;11.772;2023-09-19T10:02:20;21.00;99.90
46117;DHT22;32591;48.102;11.772;2023-09-19T10:04:54;21.00;99.90
46117;DHT22;32591;48.102;11.772;2023-09-19T10:07:40;20.90;99.90
46117;DHT22;32591;48.102;11.772;2023-09-19T10:10:15;20.90;99.90
46117;DHT22;32591;48.102;11.772;2023-09-19T10:12:48;20.90;99.90
46117;DHT22;32591;48.102;11.772;2023-09-19T10:15:18;20.80;99.90
46117;DHT22;32591;48.102;11.772;2023-09-19T10:17:47;20.60;99.90
46117;DHT22;32591;48.102;11.772;2023-09-19T10:20:16;20.30;99.90
46117;DHT22;32591;48.102;11.772;2023-09-19T10:23:05;20.10;99.90
46117;DHT22;32591;48.102;11.772;2023-09-19T10:25:40;20.00;99.90
46117;DHT22;32591;48.102;11.772;2023-09-19T10:28:09;20.20;99.90
46117;DHT22;32591;48.102;11.772;2023-09-19T10:30:41;20.60;99.90
46117;DHT22;32591;48.102;11.772;2023-09-19T10:33:11;20.70;99.90
46117;DHT22;32591;48.102;11.772;2023-09-19T10:35:41;20.60;99.90
46117;DHT22;32591;48.102;11.772;2023-09-19T10:38:10;20.60;99.90
46117;DHT22;32591;48.102;11.772;2023-09-19T10:40:39;20.60;99.90
46117;DHT22;32591;48.102;11.772;2023-09-19T10:43:12;20.60;99.90
46117;DHT22;32591;48.102;11.772;2023-09-19T10:45:45;20.70;99.90
46117;DHT22;32591;48.102;11.772;2023-09-19T10:48:15;21.00;99.90
46117;DHT22;32591;48.102;11.772;2023-09-19T10:50:46;21.30;99.90
46117;DHT22;32591;48.102;11.772;2023-09-19T10:53:17;21.40;99.90
46117;DHT22;32591;48.102;11.772;2023-09-19T10:55:50;21.40;99.90
46117;DHT22;32591;48.102;11.772;2023-09-19T10:58:27;21.50;99.90
46117;DHT22;32591;48.102;11.772;2023-09-19T11:00:57;21.50;99.90
46117;DHT22;32591;48.102;11.772;2023-09-19T11:03:31;21.40;99.90
46117;DHT22;32591;48.102;11.772;2023-09-19T11:06:04;21.20;99.90
46117;DHT22;32591;48.102;11.772;2023-09-19T11:08:57;21.10;99.90
46117;DHT22;32591;48.102;11.772;2023-09-19T11:11:49;20.90;99.90
46117;DHT22;32591;48.102;11.772;2023-09-19T11:14:30;20.70;99.90
46117;DHT22;32591;48.102;11.772;2023-09-19T11:17:31;20.60;99.90
46117;DHT22;32591;48.102;11.772;2023-09-19T11:20:19;20.50;99.90
46117;DHT22;32591;48.102;11.772;2023-09-19T11:23:20;20.60;99.90
46117;DHT22;32591;48.102;11.772;2023-09-19T11:25:53;20.90;99.90
46117;DHT22;32591;48.102;11.772;2023-09-19T11:28:34;21.00;99.90
46117;DHT22;32591;48.102;11.772;2023-09-19T11:31:41;21.10;99.90
46117;DHT22;32591;48.102;11.772;2023-09-19T11:34:45;21.30;99.90
46117;DHT22;32591;48.102;11.772;2023-09-19T11:40:38;21.20;99.40
46117;DHT22;32591;48.102;11.772;2023-09-19T11:43:32;21.30;98.80
46117;DHT22;32591;48.102;11.772;2023-09-19T11:46:06;21.60;98.00
46117;DHT22;32591;48.102;11.772;2023-09-19T11:48:33;21.90;97.90
46117;DHT22;32591;48.102;11.772;2023-09-19T11:51:13;22.10;97.70
46117;DHT22;32591;48.102;11.772;2023-09-19T11:53:52;22.30;96.70
46117;DHT22;32591;48.102;11.772;2023-09-19T11:56:22;22.30;96.50
46117;DHT22;32591;48.102;11.772;2023-09-19T11:58:51;22.50;96.30
46117;DHT22;32591;48.102;11.772;2023-09-19T12:01:25;22.50;96.10
46117;DHT22;32591;48.102;11.772;2023-09-19T12:03:56;22.60;96.20
46117;DHT22;32591;48.102;11.772;2023-09-19T12:06:26;22.80;96.30
46117;DHT22;32591;48.102;11.772;2023-09-19T12:08:55;22.90;96.40
46117;DHT22;32591;48.102;11.772;2023-09-19T12:11:28;22.80;96.00
46117;DHT22;32591;48.102;11.772;2023-09-19T12:13:59;22.60;96.30
46117;DHT22;32591;48.102;11.772;2023-09-19T12:16:27;22.30;95.70
46117;DHT22;32591;48.102;11.772;2023-09-19T12:18:57;22.10;96.30
46117;DHT22;32591;48.102;11.772;2023-09-19T12:21:27;22.00;96.10
46117;DHT22;32591;48.102;11.772;2023-09-19T12:24:03;22.10;96.40
46117;DHT22;32591;48.102;11.772;2023-09-19T12:26:38;22.20;96.50
46117;DHT22;32591;48.102;11.772;2023-09-19T12:29:14;22.00;96.00
46117;DHT22;32591;48.102;11.772;2023-09-19T12:31:50;21.80;97.00
46117;DHT22;32591;48.102;11.772;2023-09-19T12:34:22;21.80;97.30
46117;DHT22;32591;48.102;11.772;2023-09-19T12:37:07;21.80;97.70
46117;DHT22;32591;48.102;11.772;2023-09-19T12:39:39;21.80;97.30
46117;DHT22;32591;48.102;11.772;2023-09-19T12:42:08;21.80;97.50
46117;DHT22;32591;48.102;11.772;2023-09-19T12:44:37;22.00;97.30
46117;DHT22;32591;48.102;11.772;2023-09-19T12:47:10;22.30;97.30
46117;DHT22;32591;48.102;11.772;2023-09-19T12:50:11;22.60;96.50
46117;DHT22;32591;48.102;11.772;2023-09-19T12:52:45;22.80;96.10
46117;DHT22;32591;48.102;11.772;2023-09-19T12:55:21;22.70;96.00
46117;DHT22;32591;48.102;11.772;2023-09-19T12:58:01;22.80;95.90
46117;DHT22;32591;48.102;11.772;2023-09-19T13:00:36;22.90;95.20
46117;DHT22;32591;48.102;11.772;2023-09-19T13:03:26;23.00;95.60
46117;DHT22;32591;48.102;11.772;2023-09-19T13:05:55;23.20;94.70
46117;DHT22;32591;48.102;11.772;2023-09-19T13:08:29;23.00;94.60
46117;DHT22;32591;48.102;11.772;2023-09-19T13:11:02;23.10;94.90
46117;DHT22;32591;48.102;11.772;2023-09-19T13:13:32;23.00;94.80
46117;DHT22;32591;48.102;11.772;2023-09-19T13:16:02;22.70;95.20
46117;DHT22;32591;48.102;11.772;2023-09-19T13:18:31;22.40;96.10
46117;DHT22;32591;48.102;11.772;2023-09-19T13:21:05;22.30;96.00
46117;DHT22;32591;48.102;11.772;2023-09-19T13:23:35;22.50;95.90
46117;DHT22;32591;48.102;11.772;2023-09-19T13:26:02;22.80;95.60
46117;DHT22;32591;48.102;11.772;2023-09-19T13:28:31;23.00;95.30
46117;DHT22;32591;48.102;11.772;2023-09-19T13:30:58;23.20;95.00
46117;DHT22;32591;48.102;11.772;2023-09-19T13:33:25;23.30;94.70
46117;DHT22;32591;48.102;11.772;2023-09-19T13:35:52;23.50;94.20
46117;DHT22;32591;48.102;11.772;2023-09-19T13:38:20;23.60;93.50
46117;DHT22;32591;48.102;11.772;2023-09-19T13:40:49;23.50;93.90
46117;DHT22;32591;48.102;11.772;2023-09-19T13:43:18;23.50;93.50
46117;DHT22;32591;48.102;11.772;2023-09-19T13:45:47;23.40;94.30
46117;DHT22;32591;48.102;11.772;2023-09-19T13:48:15;23.50;94.50
46117;DHT22;32591;48.102;11.772;2023-09-19T13:50:45;23.70;93.70
46117;DHT22;32591;48.102;11.772;2023-09-19T13:53:13;23.60;94.30
46117;DHT22;32591;48.102;11.772;2023-09-19T13:55:40;23.60;94.20
46117;DHT22;32591;48.102;11.772;2023-09-19T13:58:09;23.40;94.10
46117;DHT22;32591;48.102;11.772;2023-09-19T14:00:37;23.20;94.40
46117;DHT22;32591;48.102;11.772;2023-09-19T14:03:04;23.20;94.80
46117;DHT22;32591;48.102;11.772;2023-09-19T14:05:32;23.50;92.80
46117;DHT22;32591;48.102;11.772;2023-09-19T14:07:59;23.40;93.20
46117;DHT22;32591;48.102;11.772;2023-09-19T14:10:26;23.40;93.10
46117;DHT22;32591;48.102;11.772;2023-09-19T14:12:55;23.60;93.20
46117;DHT22;32591;48.102;11.772;2023-09-19T14:15:25;23.50;92.90
46117;DHT22;32591;48.102;11.772;2023-09-19T14:17:56;23.40;93.10
46117;DHT22;32591;48.102;11.772;2023-09-19T14:20:25;23.30;92.90
46117;DHT22;32591;48.102;11.772;2023-09-19T14:22:53;23.00;92.90
46117;DHT22;32591;48.102;11.772;2023-09-19T14:25:20;22.90;93.20
46117;DHT22;32591;48.102;11.772;2023-09-19T14:27:47;22.80;94.00
46117;DHT22;32591;48.102;11.772;2023-09-19T14:30:15;22.60;94.00
46117;DHT22;32591;48.102;11.772;2023-09-19T14:32:43;22.60;94.10
46117;DHT22;32591;48.102;11.772;2023-09-19T14:35:10;22.40;94.50
46117;DHT22;32591;48.102;11.772;2023-09-19T14:37:40;22.40;95.00
46117;DHT22;32591;48.102;11.772;2023-09-19T14:40:08;22.50;94.70
46117;DHT22;32591;48.102;11.772;2023-09-19T14:42:39;22.40;95.10
46117;DHT22;32591;48.102;11.772;2023-09-19T14:45:07;22.60;95.50
46117;DHT22;32591;48.102;11.772;2023-09-19T14:47:34;23.10;94.30
46117;DHT22;32591;48.102;11.772;2023-09-19T14:50:05;23.20;94.40
46117;DHT22;32591;48.102;11.772;2023-09-19T14:52:34;23.40;94.20
46117;DHT22;32591;48.102;11.772;2023-09-19T14:55:02;23.50;94.20
46117;DHT22;32591;48.102;11.772;2023-09-19T14:57:30;23.80;94.10
46117;DHT22;32591;48.102;11.772;2023-09-19T14:59:57;24.20;93.50
46117;DHT22;32591;48.102;11.772;2023-09-19T15:02:25;24.10;93.30
46117;DHT22;32591;48.102;11.772;2023-09-19T15:04:52;24.10;93.90
46117;DHT22;32591;48.102;11.772;2023-09-19T15:07:21;24.00;93.70
46117;DHT22;32591;48.102;11.772;2023-09-19T15:09:48;24.20;93.70
46117;DHT22;32591;48.102;11.772;2023-09-19T15:12:15;24.50;93.20
46117;DHT22;32591;48.102;11.772;2023-09-19T15:14:42;24.70;93.00
46117;DHT22;32591;48.102;11.772;2023-09-19T15:17:09;24.80;92.30
46117;DHT22;32591;48.102;11.772;2023-09-19T15:19:36;24.80;92.60
46117;DHT22;32591;48.102;11.772;2023-09-19T15:22:04;24.60;91.70
46117;DHT22;32591;48.102;11.772;2023-09-19T15:24:33;24.60;92.20
46117;DHT22;32591;48.102;11.772;2023-09-19T15:27:00;24.60;92.10
46117;DHT22;32591;48.102;11.772;2023-09-19T15:29:28;24.40;92.30
46117;DHT22;32591;48.102;11.772;2023-09-19T15:31:55;24.40;92.80
46117;DHT22;32591;48.102;11.772;2023-09-19T15:34:24;24.70;91.80
46117;DHT22;32591;48.102;11.772;2023-09-19T15:36:51;24.70;91.80
46117;DHT22;32591;48.102;11.772;2023-09-19T15:39:18;24.70;91.50